sensor_id;sensor_type;location;lat;lon;timestamp;pressure;altitude;pressure_sealevel;temperature;humidity
47883;BME280;37739;50.350;7.578;2024-02-21T00:02:00;100581.63;;;8.17;89.56
47883;BME280;37739;50.350;7.578;2024-02-21T00:04:29;100581.63;;;8.17;89.38
47883;BME280;37739;50.350;7.578;2024-02-21T00:06:58;100572.78;;;8.12;89.37
47883;BME280;37739;50.350;7.578;2024-02-21T00:09:26;100571.16;;;8.12;89.36
47883;BME280;37739;50.350;7.578;2024-02-21T00:11:51;100568.28;;;8.07;88.92
47883;BME280;37739;50.350;7.578;2024-02-21T00:14:19;100571.03;;;8.11;89.10
47883;BME280;37739;50.350;7.578;2024-02-21T00:16:45;100590.31;;;8.05;89.16
47883;BME280;37739;50.350;7.578;2024-02-21T00:19:12;100584.44;;;8.06;89.29
47883;BME280;37739;50.350;7.578;2024-02-21T00:21:39;100593.75;;;8.06;89.34
47883;BME280;37739;50.350;7.578;2024-02-21T00:24:05;100590.59;;;8.10;89.26
47883;BME280;37739;50.350;7.578;2024-02-21T00:26:30;100583.00;;;8.12;89.00
47883;BME280;37739;50.350;7.578;2024-02-21T00:28:58;100582.25;;;8.13;89.32
47883;BME280;37739;50.350;7.578;2024-02-21T00:31:25;100584.81;;;8.13;88.86
47883;BME280;37739;50.350;7.578;2024-02-21T00:33:53;100585.31;;;8.07;88.71
47883;BME280;37739;50.350;7.578;2024-02-21T00:36:18;100589.63;;;8.08;89.06
47883;BME280;37739;50.350;7.578;2024-02-21T00:38:48;100586.91;;;8.05;89.09
47883;BME280;37739;50.350;7.578;2024-02-21T00:41:13;100592.97;;;8.07;89.16
47883;BME280;37739;50.350;7.578;2024-02-21T00:43:38;100585.94;;;8.03;88.40
47883;BME280;37739;50.350;7.578;2024-02-21T00:46:08;100577.19;;;7.99;88.68
47883;BME280;37739;50.350;7.578;2024-02-21T00:48:34;100566.88;;;7.98;89.38
47883;BME280;37739;50.350;7.578;2024-02-21T00:50:59;100546.78;;;8.04;89.33
47883;BME280;37739;50.350;7.578;2024-02-21T00:53:24;100548.81;;;8.10;89.16
47883;BME280;37739;50.350;7.578;2024-02-21T00:55:52;100548.81;;;8.10;89.27
47883;BME280;37739;50.350;7.578;2024-02-21T00:58:17;100535.28;;;8.11;89.32
47883;BME280;37739;50.350;7.578;2024-02-21T01:00:45;100533.69;;;8.13;88.87
47883;BME280;37739;50.350;7.578;2024-02-21T01:03:10;100517.38;;;8.11;88.90
47883;BME280;37739;50.350;7.578;2024-02-21T01:05:38;100516.22;;;8.05;89.05
47883;BME280;37739;50.350;7.578;2024-02-21T01:08:04;100522.28;;;8.07;89.14
47883;BME280;37739;50.350;7.578;2024-02-21T01:10:29;100524.84;;;8.07;88.77
47883;BME280;37739;50.350;7.578;2024-02-21T01:12:55;100541.25;;;8.11;88.87
47883;BME280;37739;50.350;7.578;2024-02-21T01:15:22;100537.81;;;8.11;88.74
47883;BME280;37739;50.350;7.578;2024-02-21T01:17:50;100531.13;;;8.13;88.61
47883;BME280;37739;50.350;7.578;2024-02-21T01:20:20;100523.56;;;8.14;88.75
47883;BME280;37739;50.350;7.578;2024-02-21T01:22:47;100529.34;;;8.12;88.71
47883;BME280;37739;50.350;7.578;2024-02-21T01:25:15;100534.38;;;8.10;89.09
47883;BME280;37739;50.350;7.578;2024-02-21T01:27:41;100524.94;;;8.09;88.96
47883;BME280;37739;50.350;7.578;2024-02-21T01:30:07;100531.66;;;8.07;88.77
47883;BME280;37739;50.350;7.578;2024-02-21T01:32:32;100526.53;;;8.07;88.68
47883;BME280;37739;50.350;7.578;2024-02-21T01:34:58;100531.75;;;8.09;88.75
47883;BME280;37739;50.350;7.578;2024-02-21T01:37:26;100529.44;;;8.13;88.42
47883;BME280;37739;50.350;7.578;2024-02-21T01:39:51;100527.69;;;8.12;88.69
47883;BME280;37739;50.350;7.578;2024-02-21T01:42:16;100520.81;;;8.11;88.32
47883;BME280;37739;50.350;7.578;2024-02-21T01:44:42;100514.91;;;8.12;88.44
47883;BME280;37739;50.350;7.578;2024-02-21T01:47:10;100512.38;;;8.12;88.37
47883;BME280;37739;50.350;7.578;2024-02-21T01:49:40;100511.47;;;8.12;88.43
47883;BME280;37739;50.350;7.578;2024-02-21T01:52:06;100496.13;;;8.12;88.33
47883;BME280;37739;50.350;7.578;2024-02-21T01:54:34;100500.56;;;8.14;88.28
47883;BME280;37739;50.350;7.578;2024-02-21T01:57:00;100497.91;;;8.13;88.32
47883;BME280;37739;50.350;7.578;2024-02-21T01:59:26;100487.78;;;8.14;88.43
47883;BME280;37739;50.350;7.578;2024-02-21T02:01:51;100486.72;;;8.11;88.15
47883;BME280;37739;50.350;7.578;2024-02-21T02:04:20;100479.91;;;8.11;88.24
47883;BME280;37739;50.350;7.578;2024-02-21T02:06:46;100478.06;;;8.09;88.57
47883;BME280;37739;50.350;7.578;2024-02-21T02:09:13;100472.44;;;8.14;88.53
47883;BME280;37739;50.350;7.578;2024-02-21T02:11:39;100474.19;;;8.15;88.73
47883;BME280;37739;50.350;7.578;2024-02-21T02:14:06;100479.28;;;8.15;88.55
47883;BME280;37739;50.350;7.578;2024-02-21T02:16:32;100472.34;;;8.13;88.64
47883;BME280;37739;50.350;7.578;2024-02-21T02:18:59;100463.88;;;8.14;88.61
47883;BME280;37739;50.350;7.578;2024-02-21T02:21:32;100461.94;;;8.10;88.16
47883;BME280;37739;50.350;7.578;2024-02-21T02:24:02;100450.22;;;8.13;88.79
47883;BME280;37739;50.350;7.578;2024-02-21T02:26:30;100442.56;;;8.13;88.35
47883;BME280;37739;50.350;7.578;2024-02-21T02:28:55;100448.53;;;8.14;88.33
47883;BME280;37739;50.350;7.578;2024-02-21T02:31:23;100442.44;;;8.12;88.74
47883;BME280;37739;50.350;7.578;2024-02-21T02:33:50;100440.00;;;8.13;88.49
47883;BME280;37739;50.350;7.578;2024-02-21T02:36:16;100439.28;;;8.16;88.78
47883;BME280;37739;50.350;7.578;2024-02-21T02:38:44;100433.28;;;8.15;88.70
47883;BME280;37739;50.350;7.578;2024-02-21T02:41:12;100433.38;;;8.17;88.81
47883;BME280;37739;50.350;7.578;2024-02-21T02:43:38;100424.03;;;8.17;88.69
47883;BME280;37739;50.350;7.578;2024-02-21T02:46:03;100407.81;;;8.17;88.81
47883;BME280;37739;50.350;7.578;2024-02-21T02:48:29;100404.31;;;8.15;88.61
47883;BME280;37739;50.350;7.578;2024-02-21T02:50:59;100389.75;;;8.14;88.86
47883;BME280;37739;50.350;7.578;2024-02-21T02:53:24;100391.63;;;8.16;88.75
47883;BME280;37739;50.350;7.578;2024-02-21T02:55:52;100393.28;;;8.16;89.15
47883;BME280;37739;50.350;7.578;2024-02-21T02:58:20;100388.25;;;8.17;89.13
47883;BME280;37739;50.350;7.578;2024-02-21T03:00:45;100388.25;;;8.17;89.10
47883;BME280;37739;50.350;7.578;2024-02-21T03:03:13;100386.50;;;8.16;89.09
47883;BME280;37739;50.350;7.578;2024-02-21T03:05:38;100375.38;;;8.16;88.84
47883;BME280;37739;50.350;7.578;2024-02-21T03:08:04;100378.13;;;8.19;88.79
47883;BME280;37739;50.350;7.578;2024-02-21T03:10:35;100383.31;;;8.20;89.07
47883;BME280;37739;50.350;7.578;2024-02-21T03:13:03;100381.47;;;8.18;88.37
47883;BME280;37739;50.350;7.578;2024-02-21T03:15:31;100381.47;;;8.18;88.54
47883;BME280;37739;50.350;7.578;2024-02-21T03:17:56;100372.22;;;8.20;88.60
47883;BME280;37739;50.350;7.578;2024-02-21T03:20:23;100382.44;;;8.20;88.58
47883;BME280;37739;50.350;7.578;2024-02-21T03:22:49;100377.34;;;8.20;88.35
47883;BME280;37739;50.350;7.578;2024-02-21T03:25:14;100387.47;;;8.18;88.50
47883;BME280;37739;50.350;7.578;2024-02-21T03:27:40;100391.00;;;8.20;88.72
47883;BME280;37739;50.350;7.578;2024-02-21T03:30:05;100386.75;;;8.21;88.35
47883;BME280;37739;50.350;7.578;2024-02-21T03:32:31;100379.09;;;8.21;88.49
47883;BME280;37739;50.350;7.578;2024-02-21T03:34:58;100387.81;;;8.24;88.47
47883;BME280;37739;50.350;7.578;2024-02-21T03:37:25;100390.38;;;8.24;88.06
47883;BME280;37739;50.350;7.578;2024-02-21T03:39:52;100383.47;;;8.23;88.00
47883;BME280;37739;50.350;7.578;2024-02-21T03:42:18;100374.94;;;8.23;88.23
47883;BME280;37739;50.350;7.578;2024-02-21T03:44:43;100378.38;;;8.23;88.23
47883;BME280;37739;50.350;7.578;2024-02-21T03:47:08;100382.50;;;8.21;88.05
47883;BME280;37739;50.350;7.578;2024-02-21T03:49:36;100381.56;;;8.19;88.55
47883;BME280;37739;50.350;7.578;2024-02-21T03:52:04;100371.31;;;8.19;88.63
47883;BME280;37739;50.350;7.578;2024-02-21T03:54:32;100373.00;;;8.19;88.39
47883;BME280;37739;50.350;7.578;2024-02-21T03:56:57;100368.69;;;8.18;87.77
47883;BME280;37739;50.350;7.578;2024-02-21T03:59:27;100373.78;;;8.18;88.38
47883;BME280;37739;50.350;7.578;2024-02-21T04:01:53;100367.03;;;8.18;88.53
47883;BME280;37739;50.350;7.578;2024-02-21T04:04:18;100347.44;;;8.19;88.28
47883;BME280;37739;50.350;7.578;2024-02-21T04:06:50;100344.72;;;8.16;87.90
47883;BME280;37739;50.350;7.578;2024-02-21T04:09:16;100349.66;;;8.13;87.95
47883;BME280;37739;50.350;7.578;2024-02-21T04:11:44;100351.41;;;8.14;88.10
47883;BME280;37739;50.350;7.578;2024-02-21T04:14:09;100340.50;;;8.16;88.41
47883;BME280;37739;50.350;7.578;2024-02-21T04:16:37;100337.13;;;8.17;88.02
47883;BME280;37739;50.350;7.578;2024-02-21T04:19:02;100327.63;;;8.15;87.67
47883;BME280;37739;50.350;7.578;2024-02-21T04:21:28;100323.31;;;8.14;87.86
47883;BME280;37739;50.350;7.578;2024-02-21T04:23:56;100312.31;;;8.15;88.16
47883;BME280;37739;50.350;7.578;2024-02-21T04:26:25;100302.16;;;8.16;87.59
47883;BME280;37739;50.350;7.578;2024-02-21T04:28:51;100302.72;;;8.11;87.64
47883;BME280;37739;50.350;7.578;2024-02-21T04:31:16;100301.75;;;8.09;87.31
47883;BME280;37739;50.350;7.578;2024-02-21T04:33:44;100310.19;;;8.07;87.47
47883;BME280;37739;50.350;7.578;2024-02-21T04:36:11;100305.97;;;8.08;87.13
47883;BME280;37739;50.350;7.578;2024-02-21T04:38:39;100307.00;;;8.12;87.03
47883;BME280;37739;50.350;7.578;2024-02-21T04:41:10;100298.47;;;8.11;87.12
47883;BME280;37739;50.350;7.578;2024-02-21T04:43:38;100304.34;;;8.10;87.07
47883;BME280;37739;50.350;7.578;2024-02-21T04:46:04;100305.91;;;8.06;86.13
47883;BME280;37739;50.350;7.578;2024-02-21T04:48:29;100304.34;;;8.10;86.75
47883;BME280;37739;50.350;7.578;2024-02-21T04:50:55;100303.34;;;8.06;86.54
47883;BME280;37739;50.350;7.578;2024-02-21T04:53:20;100303.50;;;8.10;86.80
47883;BME280;37739;50.350;7.578;2024-02-21T04:55:45;100313.72;;;8.10;86.76
47883;BME280;37739;50.350;7.578;2024-02-21T04:58:11;100311.16;;;8.10;86.71
47883;BME280;37739;50.350;7.578;2024-02-21T05:00:36;100310.53;;;8.14;86.84
47883;BME280;37739;50.350;7.578;2024-02-21T05:03:02;100308.78;;;8.13;86.60
47883;BME280;37739;50.350;7.578;2024-02-21T05:05:29;100311.44;;;8.14;87.03
47883;BME280;37739;50.350;7.578;2024-02-21T05:07:59;100302.06;;;8.15;86.80
47883;BME280;37739;50.350;7.578;2024-02-21T05:10:27;100301.25;;;8.16;86.87
47883;BME280;37739;50.350;7.578;2024-02-21T05:12:52;100301.34;;;8.17;87.15
47883;BME280;37739;50.350;7.578;2024-02-21T05:15:17;100290.97;;;8.14;87.42
47883;BME280;37739;50.350;7.578;2024-02-21T05:17:45;100293.59;;;8.16;87.21
47883;BME280;37739;50.350;7.578;2024-02-21T05:20:13;100290.16;;;8.15;87.50
47883;BME280;37739;50.350;7.578;2024-02-21T05:22:41;100295.03;;;8.11;86.86
47883;BME280;37739;50.350;7.578;2024-02-21T05:25:09;100299.53;;;8.15;87.21
47883;BME280;37739;50.350;7.578;2024-02-21T05:27:39;100292.59;;;8.12;86.87
47883;BME280;37739;50.350;7.578;2024-02-21T05:30:05;100282.41;;;8.14;86.93
47883;BME280;37739;50.350;7.578;2024-02-21T05:32:31;100281.72;;;8.16;87.12
47883;BME280;37739;50.350;7.578;2024-02-21T05:34:59;100282.50;;;8.15;86.67
47883;BME280;37739;50.350;7.578;2024-02-21T05:37:27;100274.13;;;8.18;87.02
47883;BME280;37739;50.350;7.578;2024-02-21T05:39:52;100279.16;;;8.16;86.79
47883;BME280;37739;50.350;7.578;2024-02-21T05:42:17;100273.69;;;8.10;86.60
47883;BME280;37739;50.350;7.578;2024-02-21T05:44:43;100279.81;;;8.12;86.41
47883;BME280;37739;50.350;7.578;2024-02-21T05:47:08;100274.41;;;8.07;86.55
47883;BME280;37739;50.350;7.578;2024-02-21T05:49:39;100287.09;;;8.06;86.21
47883;BME280;37739;50.350;7.578;2024-02-21T05:52:04;100293.91;;;8.05;86.44
47883;BME280;37739;50.350;7.578;2024-02-21T05:54:31;100288.97;;;8.09;86.78
47883;BME280;37739;50.350;7.578;2024-02-21T05:56:56;100296.78;;;8.12;86.34
47883;BME280;37739;50.350;7.578;2024-02-21T05:59:22;100288.00;;;8.06;86.28
47883;BME280;37739;50.350;7.578;2024-02-21T06:01:55;100282.09;;;8.07;86.01
47883;BME280;37739;50.350;7.578;2024-02-21T06:04:25;100268.53;;;8.09;86.34
47883;BME280;37739;50.350;7.578;2024-02-21T06:06:50;100266.94;;;8.11;86.60
47883;BME280;37739;50.350;7.578;2024-02-21T06:09:16;100253.88;;;8.06;85.97
47883;BME280;37739;50.350;7.578;2024-02-21T06:11:41;100246.22;;;8.06;86.19
47883;BME280;37739;50.350;7.578;2024-02-21T06:14:08;100248.72;;;8.04;86.49
47883;BME280;37739;50.350;7.578;2024-02-21T06:16:34;100245.25;;;8.04;86.09
47883;BME280;37739;50.350;7.578;2024-02-21T06:19:01;100252.94;;;8.04;85.96
47883;BME280;37739;50.350;7.578;2024-02-21T06:21:29;100258.13;;;8.05;85.66
47883;BME280;37739;50.350;7.578;2024-02-21T06:23:57;100255.34;;;8.01;85.69
47883;BME280;37739;50.350;7.578;2024-02-21T06:26:26;100252.69;;;7.99;85.41
47883;BME280;37739;50.350;7.578;2024-02-21T06:28:52;100239.03;;;7.99;85.54
47883;BME280;37739;50.350;7.578;2024-02-21T06:31:19;100241.66;;;8.00;85.60
47883;BME280;37739;50.350;7.578;2024-02-21T06:33:45;100238.50;;;8.04;85.55
47883;BME280;37739;50.350;7.578;2024-02-21T06:36:10;100246.75;;;8.00;85.08
47883;BME280;37739;50.350;7.578;2024-02-21T06:38:38;100244.16;;;7.99;85.41
47883;BME280;37739;50.350;7.578;2024-02-21T06:41:03;100243.25;;;7.98;85.51
47883;BME280;37739;50.350;7.578;2024-02-21T06:43:29;100242.38;;;7.98;85.24
47883;BME280;37739;50.350;7.578;2024-02-21T06:45:54;100246.63;;;7.97;85.07
47883;BME280;37739;50.350;7.578;2024-02-21T06:48:21;100241.66;;;8.00;85.26
47883;BME280;37739;50.350;7.578;2024-02-21T06:50:51;100239.19;;;8.02;85.36
47883;BME280;37739;50.350;7.578;2024-02-21T06:53:17;100236.53;;;8.00;85.17
47883;BME280;37739;50.350;7.578;2024-02-21T06:55:44;100237.50;;;8.02;85.03
47883;BME280;37739;50.350;7.578;2024-02-21T06:58:12;100241.09;;;8.06;85.03
47883;BME280;37739;50.350;7.578;2024-02-21T07:00:39;100240.25;;;8.05;84.84
47883;BME280;37739;50.350;7.578;2024-02-21T07:03:07;100248.88;;;8.07;84.58
47883;BME280;37739;50.350;7.578;2024-02-21T07:05:32;100246.16;;;8.04;84.46
47883;BME280;37739;50.350;7.578;2024-02-21T07:08:00;100239.50;;;8.08;84.95
47883;BME280;37739;50.350;7.578;2024-02-21T07:10:25;100245.53;;;8.09;84.46
47883;BME280;37739;50.350;7.578;2024-02-21T07:12:54;100235.69;;;8.00;84.71
47883;BME280;37739;50.350;7.578;2024-02-21T07:15:22;100233.44;;;8.06;84.94
47883;BME280;37739;50.350;7.578;2024-02-21T07:17:47;100235.31;;;8.09;84.56
47883;BME280;37739;50.350;7.578;2024-02-21T07:20:12;100241.38;;;8.11;83.96
47883;BME280;37739;50.350;7.578;2024-02-21T07:22:40;100233.72;;;8.11;84.43
47883;BME280;37739;50.350;7.578;2024-02-21T07:25:05;100229.56;;;8.13;84.64
47883;BME280;37739;50.350;7.578;2024-02-21T07:27:31;100225.22;;;8.12;84.28
47883;BME280;37739;50.350;7.578;2024-02-21T07:30:00;100227.00;;;8.13;83.49
47883;BME280;37739;50.350;7.578;2024-02-21T07:32:28;100225.22;;;8.12;84.36
47883;BME280;37739;50.350;7.578;2024-02-21T07:34:56;100217.56;;;8.12;84.09
47883;BME280;37739;50.350;7.578;2024-02-21T07:37:23;100223.63;;;8.14;84.05
47883;BME280;37739;50.350;7.578;2024-02-21T07:39:51;100222.13;;;8.17;84.12
47883;BME280;37739;50.350;7.578;2024-02-21T07:42:21;100207.66;;;8.18;83.99
47883;BME280;37739;50.350;7.578;2024-02-21T07:44:46;100218.59;;;8.15;83.67
47883;BME280;37739;50.350;7.578;2024-02-21T07:47:12;100212.00;;;8.19;84.02
47883;BME280;37739;50.350;7.578;2024-02-21T07:49:41;100208.72;;;8.21;83.93
47883;BME280;37739;50.350;7.578;2024-02-21T07:52:06;100193.63;;;8.26;83.66
47883;BME280;37739;50.350;7.578;2024-02-21T07:54:32;100196.34;;;8.29;83.73
47883;BME280;37739;50.350;7.578;2024-02-21T07:57:03;100190.44;;;8.30;83.18
47883;BME280;37739;50.350;7.578;2024-02-21T07:59:29;100192.19;;;8.31;83.35
47883;BME280;37739;50.350;7.578;2024-02-21T08:02:00;100192.19;;;8.31;83.41
47883;BME280;37739;50.350;7.578;2024-02-21T08:04:26;100195.69;;;8.33;83.17
47883;BME280;37739;50.350;7.578;2024-02-21T08:06:54;100186.44;;;8.35;82.34
47883;BME280;37739;50.350;7.578;2024-02-21T08:09:29;100190.56;;;8.33;82.84
47883;BME280;37739;50.350;7.578;2024-02-21T08:11:57;100183.91;;;8.35;83.17
47883;BME280;37739;50.350;7.578;2024-02-21T08:14:24;100182.69;;;8.29;82.91
47883;BME280;37739;50.350;7.578;2024-02-21T08:16:53;100188.75;;;8.31;82.88
47883;BME280;37739;50.350;7.578;2024-02-21T08:19:20;100185.25;;;8.29;82.77
47883;BME280;37739;50.350;7.578;2024-02-21T08:21:45;100180.22;;;8.30;82.89
47883;BME280;37739;50.350;7.578;2024-02-21T08:24:15;100181.34;;;8.35;82.93
47883;BME280;37739;50.350;7.578;2024-02-21T08:26:41;100185.00;;;8.40;82.86
47883;BME280;37739;50.350;7.578;2024-02-21T08:29:08;100174.09;;;8.43;82.72
47883;BME280;37739;50.350;7.578;2024-02-21T08:31:34;100178.56;;;8.47;82.65
47883;BME280;37739;50.350;7.578;2024-02-21T08:34:02;100166.16;;;8.55;82.04
47883;BME280;37739;50.350;7.578;2024-02-21T08:36:34;100160.16;;;8.54;81.93
47883;BME280;37739;50.350;7.578;2024-02-21T08:39:03;100159.66;;;8.61;81.89
47883;BME280;37739;50.350;7.578;2024-02-21T08:41:31;100143.69;;;8.65;81.67
47883;BME280;37739;50.350;7.578;2024-02-21T08:43:57;100146.88;;;8.61;81.31
47883;BME280;37739;50.350;7.578;2024-02-21T08:46:25;100142.59;;;8.60;81.32
47883;BME280;37739;50.350;7.578;2024-02-21T08:48:51;100139.22;;;8.61;82.02
47883;BME280;37739;50.350;7.578;2024-02-21T08:51:17;100140.09;;;8.62;81.00
47883;BME280;37739;50.350;7.578;2024-02-21T08:53:46;100139.59;;;8.69;81.45
47883;BME280;37739;50.350;7.578;2024-02-21T08:56:11;100121.84;;;8.72;81.69
47883;BME280;37739;50.350;7.578;2024-02-21T08:58:37;100118.19;;;8.67;81.19
47883;BME280;37739;50.350;7.578;2024-02-21T09:01:03;100120.91;;;8.70;81.03
47883;BME280;37739;50.350;7.578;2024-02-21T09:03:32;100112.78;;;8.79;81.05
47883;BME280;37739;50.350;7.578;2024-02-21T09:06:00;100104.47;;;8.83;80.06
47883;BME280;37739;50.350;7.578;2024-02-21T09:08:28;100107.25;;;8.88;80.78
47883;BME280;37739;50.350;7.578;2024-02-21T09:10:56;100100.28;;;8.85;79.54
47883;BME280;37739;50.350;7.578;2024-02-21T09:13:23;100100.81;;;8.78;79.07
47883;BME280;37739;50.350;7.578;2024-02-21T09:15:51;100093.94;;;8.77;79.82
47883;BME280;37739;50.350;7.578;2024-02-21T09:18:19;100095.03;;;8.82;79.88
47883;BME280;37739;50.350;7.578;2024-02-21T09:20:44;100093.19;;;8.79;78.64
47883;BME280;37739;50.350;7.578;2024-02-21T09:23:10;100087.50;;;8.85;79.69
47883;BME280;37739;50.350;7.578;2024-02-21T09:25:36;100082.38;;;8.85;78.87
47883;BME280;37739;50.350;7.578;2024-02-21T09:28:02;100078.38;;;8.90;78.77
47883;BME280;37739;50.350;7.578;2024-02-21T09:30:28;100071.88;;;8.97;78.52
47883;BME280;37739;50.350;7.578;2024-02-21T09:32:58;100062.88;;;9.05;77.74
47883;BME280;37739;50.350;7.578;2024-02-21T09:35:30;100067.13;;;9.04;77.36
47883;BME280;37739;50.350;7.578;2024-02-21T09:37:55;100072.63;;;9.12;77.15
47883;BME280;37739;50.350;7.578;2024-02-21T09:40:21;100071.88;;;9.15;77.10
47883;BME280;37739;50.350;7.578;2024-02-21T09:42:47;100071.94;;;9.16;77.06
47883;BME280;37739;50.350;7.578;2024-02-21T09:45:20;100071.34;;;9.22;77.15
47883;BME280;37739;50.350;7.578;2024-02-21T09:50:40;100059.94;;;9.15;76.81
47883;BME280;37739;50.350;7.578;2024-02-21T09:53:09;100054.81;;;9.15;77.37
47883;BME280;37739;50.350;7.578;2024-02-21T09:55:37;100046.53;;;9.21;77.22
47883;BME280;37739;50.350;7.578;2024-02-21T09:58:09;100045.97;;;9.27;75.77
47883;BME280;37739;50.350;7.578;2024-02-21T10:00:36;100048.59;;;9.28;77.00
47883;BME280;37739;50.350;7.578;2024-02-21T10:03:02;100055.59;;;9.32;76.54
47883;BME280;37739;50.350;7.578;2024-02-21T10:05:34;100050.22;;;9.26;76.58
47883;BME280;37739;50.350;7.578;2024-02-21T10:08:01;100040.03;;;9.28;76.83
47883;BME280;37739;50.350;7.578;2024-02-21T10:10:26;100041.94;;;9.32;76.55
47883;BME280;37739;50.350;7.578;2024-02-21T10:12:55;100033.44;;;9.33;76.47
47883;BME280;37739;50.350;7.578;2024-02-21T10:15:22;100031.22;;;9.40;76.08
47883;BME280;37739;50.350;7.578;2024-02-21T10:18:02;100026.31;;;9.45;75.31
47883;BME280;37739;50.350;7.578;2024-02-21T10:20:32;100022.00;;;9.44;75.00
47883;BME280;37739;50.350;7.578;2024-02-21T10:23:05;100013.44;;;9.43;75.43
47883;BME280;37739;50.350;7.578;2024-02-21T10:25:34;100005.94;;;9.48;75.62
47883;BME280;37739;50.350;7.578;2024-02-21T10:28:00;100015.59;;;9.54;74.89
47883;BME280;37739;50.350;7.578;2024-02-21T10:30:25;100014.25;;;9.62;75.16
47883;BME280;37739;50.350;7.578;2024-02-21T10:32:53;100008.66;;;9.71;75.65
47883;BME280;37739;50.350;7.578;2024-02-21T10:35:29;100002.94;;;9.76;75.12
47883;BME280;37739;50.350;7.578;2024-02-21T10:37:58;100006.56;;;9.81;75.24
47883;BME280;37739;50.350;7.578;2024-02-21T10:40:27;100003.25;;;9.84;74.86
47883;BME280;37739;50.350;7.578;2024-02-21T10:42:57;99992.16;;;9.83;74.79
47883;BME280;37739;50.350;7.578;2024-02-21T10:48:11;99995.03;;;9.91;73.99
47883;BME280;37739;50.350;7.578;2024-02-21T10:51:00;99991.84;;;9.77;73.87
47883;BME280;37739;50.350;7.578;2024-02-21T10:56:31;99981.59;;;9.77;74.77
47883;BME280;37739;50.350;7.578;2024-02-21T10:59:05;99981.75;;;9.80;74.68
47883;BME280;37739;50.350;7.578;2024-02-21T11:01:31;99983.38;;;9.78;74.43
47883;BME280;37739;50.350;7.578;2024-02-21T11:04:05;99979.38;;;9.85;74.47
47883;BME280;37739;50.350;7.578;2024-02-21T11:06:32;99983.84;;;9.89;75.03
47883;BME280;37739;50.350;7.578;2024-02-21T11:09:03;99977.28;;;9.96;74.48
47883;BME280;37739;50.350;7.578;2024-02-21T11:11:36;99971.06;;;9.91;74.18
47883;BME280;37739;50.350;7.578;2024-02-21T11:14:18;99963.44;;;9.92;73.84
47883;BME280;37739;50.350;7.578;2024-02-21T11:16:44;99973.84;;;9.95;73.81
47883;BME280;37739;50.350;7.578;2024-02-21T11:19:19;99954.22;;;9.96;73.94
47883;BME280;37739;50.350;7.578;2024-02-21T11:21:47;99957.56;;;9.95;74.79
47883;BME280;37739;50.350;7.578;2024-02-21T11:24:44;99951.81;;;10.00;73.96
47883;BME280;37739;50.350;7.578;2024-02-21T11:27:20;99948.66;;;10.06;74.19
47883;BME280;37739;50.350;7.578;2024-02-21T11:29:49;99947.00;;;10.08;74.14
47883;BME280;37739;50.350;7.578;2024-02-21T11:32:21;99942.22;;;10.16;74.15
47883;BME280;37739;50.350;7.578;2024-02-21T11:37:29;99925.47;;;10.24;74.03
47883;BME280;37739;50.350;7.578;2024-02-21T11:39:56;99925.81;;;10.32;74.50
47883;BME280;37739;50.350;7.578;2024-02-21T11:42:21;99910.47;;;10.33;74.10
47883;BME280;37739;50.350;7.578;2024-02-21T11:44:48;99901.75;;;10.30;73.43
47883;BME280;37739;50.350;7.578;2024-02-21T11:47:14;99893.06;;;10.26;73.41
47883;BME280;37739;50.350;7.578;2024-02-21T11:49:46;99892.25;;;10.27;73.18
47883;BME280;37739;50.350;7.578;2024-02-21T11:52:21;99892.16;;;10.26;73.70
47883;BME280;37739;50.350;7.578;2024-02-21T11:54:50;99877.75;;;10.28;73.42
47883;BME280;37739;50.350;7.578;2024-02-21T11:57:18;99872.06;;;10.35;73.98
47883;BME280;37739;50.350;7.578;2024-02-21T11:59:45;99860.31;;;10.40;73.45
47883;BME280;37739;50.350;7.578;2024-02-21T12:02:11;99851.03;;;10.44;73.41
47883;BME280;37739;50.350;7.578;2024-02-21T12:04:41;99841.56;;;10.43;72.53
47883;BME280;37739;50.350;7.578;2024-02-21T12:07:09;99821.00;;;10.41;73.43
47883;BME280;37739;50.350;7.578;2024-02-21T12:09:35;99817.56;;;10.40;73.19
47883;BME280;37739;50.350;7.578;2024-02-21T12:12:07;99809.00;;;10.40;72.97
47883;BME280;37739;50.350;7.578;2024-02-21T12:14:34;99799.63;;;10.40;73.10
47883;BME280;37739;50.350;7.578;2024-02-21T12:17:00;99795.41;;;10.43;72.46
47883;BME280;37739;50.350;7.578;2024-02-21T12:19:28;99787.91;;;10.47;72.83
47883;BME280;37739;50.350;7.578;2024-02-21T12:21:56;99775.94;;;10.48;72.60
47883;BME280;37739;50.350;7.578;2024-02-21T12:24:27;99792.22;;;10.48;72.04
47883;BME280;37739;50.350;7.578;2024-02-21T12:26:54;99781.66;;;10.40;70.86
47883;BME280;37739;50.350;7.578;2024-02-21T12:29:23;99779.16;;;10.42;71.39
47883;BME280;37739;50.350;7.578;2024-02-21T12:31:52;99777.47;;;10.43;72.01
47883;BME280;37739;50.350;7.578;2024-02-21T12:34:23;99763.94;;;10.47;72.05
47883;BME280;37739;50.350;7.578;2024-02-21T12:36:51;99763.91;;;10.45;71.38
47883;BME280;37739;50.350;7.578;2024-02-21T12:39:17;99762.00;;;10.41;70.99
47883;BME280;37739;50.350;7.578;2024-02-21T12:41:42;99756.09;;;10.42;71.04
47883;BME280;37739;50.350;7.578;2024-02-21T12:44:11;99749.88;;;10.35;70.44
47883;BME280;37739;50.350;7.578;2024-02-21T12:46:39;99738.06;;;10.40;71.58
47883;BME280;37739;50.350;7.578;2024-02-21T12:49:05;99737.47;;;10.48;71.49
47883;BME280;37739;50.350;7.578;2024-02-21T12:51:32;99723.81;;;10.49;70.31
47883;BME280;37739;50.350;7.578;2024-02-21T12:54:00;99725.53;;;10.48;70.71
47883;BME280;37739;50.350;7.578;2024-02-21T12:56:30;99714.56;;;10.52;70.51
47883;BME280;37739;50.350;7.578;2024-02-21T12:58:56;99706.81;;;10.51;69.26
47883;BME280;37739;50.350;7.578;2024-02-21T13:01:22;99710.19;;;10.50;69.29
47883;BME280;37739;50.350;7.578;2024-02-21T13:03:49;99707.84;;;10.56;69.69
47883;BME280;37739;50.350;7.578;2024-02-21T13:06:17;99695.28;;;10.64;69.76
47883;BME280;37739;50.350;7.578;2024-02-21T13:08:44;99689.38;;;10.66;69.20
47883;BME280;37739;50.350;7.578;2024-02-21T13:11:09;99690.34;;;10.68;68.64
47883;BME280;37739;50.350;7.578;2024-02-21T13:13:36;99684.50;;;10.74;69.71